createdAt,value
2019-03-20T00:00:19.637Z,87.16
2019-03-20T00:01:19.450Z,87.27
2019-03-20T00:02:19.423Z,87.27
2019-03-20T00:03:19.427Z,87.16
2019-03-20T00:04:19.398Z,87.16
2019-03-20T00:05:19.385Z,87.06
2019-03-20T00:06:19.556Z,86.96
2019-03-20T00:07:19.405Z,87.06
2019-03-20T00:08:19.366Z,86.96
2019-03-20T00:09:19.343Z,87.16
2019-03-20T00:10:20.793Z,87.27
2019-03-20T00:11:19.492Z,87.37
2019-03-20T00:12:19.326Z,87.27
2019-03-20T00:13:19.435Z,87.37
2019-03-20T00:14:19.326Z,87.16
2019-03-20T00:15:19.277Z,87.06
2019-03-20T00:16:19.387Z,86.96
2019-03-20T00:17:19.455Z,86.99
2019-03-20T00:18:19.584Z,86.99
2019-03-20T00:19:19.244Z,87.20
2019-03-20T00:20:19.225Z,87.41
2019-03-20T00:21:21.979Z,87.48
2019-03-20T00:22:19.201Z,87.30
2019-03-20T00:23:19.346Z,87.41
2019-03-20T00:24:19.182Z,87.83
2019-03-20T00:25:19.167Z,87.41
2019-03-20T00:26:19.192Z,87.30
2019-03-20T00:27:19.154Z,87.52
2019-03-20T00:28:19.141Z,87.41
2019-03-20T00:29:19.423Z,87.30
2019-03-20T00:30:19.419Z,87.52
2019-03-20T00:31:19.825Z,87.41
2019-03-20T00:32:19.165Z,87.41
2019-03-20T00:33:19.441Z,87.62
2019-03-20T00:34:19.156Z,87.62
2019-03-20T00:35:20.134Z,87.83
2019-03-20T00:36:19.091Z,87.62
2019-03-20T00:37:19.036Z,87.62
2019-03-20T00:38:19.050Z,88.04
2019-03-20T00:39:19.046Z,88.24
2019-03-20T00:40:19.009Z,88.04
2019-03-20T00:41:19.654Z,88.24
2019-03-20T00:42:18.981Z,88.04
2019-03-20T00:43:18.971Z,88.04
2019-03-20T00:44:18.971Z,88.49
2019-03-20T00:45:18.949Z,88.81
2019-03-20T00:46:19.071Z,89.08
2019-03-20T00:47:19.070Z,89.18
2019-03-20T00:48:19.061Z,89.01
2019-03-20T00:49:18.927Z,88.76
2019-03-20T00:50:18.916Z,88.98
2019-03-20T00:51:18.882Z,88.76
2019-03-20T00:52:18.887Z,88.76
2019-03-20T00:53:19.058Z,89.22
2019-03-20T00:54:18.887Z,89.01
2019-03-20T00:55:18.849Z,89.08
2019-03-20T00:56:18.857Z,88.98
2019-03-20T00:57:18.821Z,89.12
2019-03-20T00:58:18.995Z,88.81
2019-03-20T00:59:18.801Z,88.91
2019-03-20T01:00:18.841Z,89.08
2019-03-20T01:01:18.807Z,88.91
2019-03-20T01:02:18.777Z,89.22
2019-03-20T01:03:18.877Z,89.01
2019-03-20T01:04:19.100Z,89.12
2019-03-20T01:05:18.927Z,88.70
2019-03-20T01:06:18.732Z,88.18
2019-03-20T01:07:18.941Z,87.93
2019-03-20T01:08:18.704Z,88.08
2019-03-20T01:09:19.309Z,88.08
2019-03-20T01:10:18.683Z,88.29
2019-03-20T01:11:18.672Z,88.29
2019-03-20T01:12:18.709Z,88.60
2019-03-20T01:13:18.667Z,88.39
2019-03-20T01:14:18.667Z,88.39
2019-03-20T01:15:42.004Z,88.70
2019-03-20T01:16:18.678Z,89.12
2019-03-20T01:17:18.684Z,89.01
2019-03-20T01:18:22.316Z,88.29
2019-03-20T01:19:18.730Z,89.01
2019-03-20T01:20:18.687Z,89.22
2019-03-20T01:21:22.203Z,89.12
2019-03-20T01:22:18.887Z,89.22
2019-03-20T01:23:19.149Z,89.12
2019-03-20T01:24:18.532Z,89.01
2019-03-20T01:25:18.540Z,88.95
2019-03-20T01:26:19.202Z,89.16
2019-03-20T01:27:19.071Z,89.06
2019-03-20T01:28:18.486Z,89.37
2019-03-20T01:29:18.470Z,89.16
2019-03-20T01:30:18.468Z,89.16
2019-03-20T01:31:18.456Z,89.16
2019-03-20T01:32:18.456Z,88.85
2019-03-20T01:33:18.694Z,88.95
2019-03-20T01:34:18.482Z,88.85
2019-03-20T01:35:23.856Z,89.37
2019-03-20T01:36:19.409Z,89.20
2019-03-20T01:37:18.413Z,89.20
2019-03-20T01:38:18.492Z,89.20
2019-03-20T01:39:18.942Z,89.62
2019-03-20T01:40:18.359Z,89.58
2019-03-20T01:41:18.382Z,89.31
2019-03-20T01:42:19.729Z,89.68
2019-03-20T01:43:18.426Z,89.68
2019-03-20T01:44:18.472Z,89.93
2019-03-20T01:45:18.313Z,89.58
2019-03-20T01:46:18.485Z,89.72
2019-03-20T01:47:18.279Z,89.58
2019-03-20T01:48:18.287Z,89.41
2019-03-20T01:49:18.262Z,89.83
2019-03-20T01:50:18.246Z,89.51
2019-03-20T01:51:18.238Z,89.58
2019-03-20T01:52:18.374Z,89.41
2019-03-20T01:53:18.221Z,89.51
2019-03-20T01:54:18.386Z,89.58
2019-03-20T01:55:18.202Z,89.41
2019-03-20T01:56:18.302Z,89.83
2019-03-20T01:57:19.778Z,89.51
2019-03-20T01:58:18.696Z,89.51
2019-03-20T01:59:18.148Z,89.51
2019-03-20T02:00:18.138Z,89.51
2019-03-20T02:01:18.145Z,89.41
2019-03-20T02:02:18.890Z,89.51
2019-03-20T02:03:18.105Z,89.56
2019-03-20T02:04:18.092Z,89.66
2019-03-20T02:05:18.082Z,89.93
2019-03-20T02:06:18.076Z,89.87
2019-03-20T02:07:18.063Z,89.56
2019-03-20T02:08:18.366Z,89.97
2019-03-20T02:09:18.109Z,89.76
2019-03-20T02:10:18.045Z,89.66
2019-03-20T02:11:18.106Z,89.93
2019-03-20T02:12:18.338Z,90.18
2019-03-20T02:13:17.997Z,89.97
2019-03-20T02:14:18.791Z,90.08
2019-03-20T02:15:18.062Z,90.08
2019-03-20T02:16:18.009Z,90.28
2019-03-20T02:17:18.086Z,90.28
2019-03-20T02:18:18.136Z,90.28
2019-03-20T02:19:17.932Z,89.97
2019-03-20T02:20:17.938Z,90.08
2019-03-20T02:21:17.905Z,89.97
2019-03-20T02:22:17.896Z,90.18
2019-03-20T02:23:18.124Z,89.97
2019-03-20T02:24:18.028Z,89.76
2019-03-20T02:25:17.876Z,90.08
2019-03-20T02:26:17.880Z,90.28
2019-03-20T02:27:17.847Z,89.87
2019-03-20T02:28:17.993Z,90.28
2019-03-20T02:29:17.829Z,90.39
2019-03-20T02:30:18.174Z,90.43
2019-03-20T02:31:17.962Z,90.60
2019-03-20T02:32:19.506Z,90.60
2019-03-20T02:33:17.781Z,90.60
2019-03-20T02:34:18.174Z,90.39
2019-03-20T02:35:17.761Z,90.28
2019-03-20T02:36:18.856Z,90.22
2019-03-20T02:37:17.737Z,90.39
2019-03-20T02:38:17.722Z,90.60
2019-03-20T02:39:17.713Z,90.60
2019-03-20T02:40:17.876Z,90.39
2019-03-20T02:41:17.700Z,90.28
2019-03-20T02:42:17.686Z,90.60
2019-03-20T02:43:17.672Z,90.18
2019-03-20T02:44:17.714Z,89.97
2019-03-20T02:45:18.003Z,90.08
2019-03-20T02:46:17.991Z,90.12
2019-03-20T02:47:17.642Z,90.01
2019-03-20T02:48:17.632Z,89.87
2019-03-20T02:49:17.604Z,89.97
2019-03-20T02:50:17.593Z,89.56
2019-03-20T02:51:17.590Z,89.56
2019-03-20T02:52:17.914Z,89.56
2019-03-20T02:53:18.334Z,89.59
2019-03-20T02:54:17.553Z,89.49
2019-03-20T02:55:17.550Z,89.56
2019-03-20T02:56:17.535Z,90.01
2019-03-20T02:57:17.885Z,89.81
2019-03-20T02:58:17.626Z,89.91
2019-03-20T02:59:17.726Z,89.59
2019-03-20T03:00:18.128Z,89.49
2019-03-20T03:01:17.484Z,89.81
2019-03-20T03:02:17.562Z,89.81
2019-03-20T03:03:17.655Z,90.01
2019-03-20T03:04:17.462Z,90.01
2019-03-20T03:05:17.450Z,90.12
2019-03-20T03:06:17.452Z,89.91
2019-03-20T03:07:17.419Z,90.12
2019-03-20T03:08:17.608Z,90.53
2019-03-20T03:09:17.526Z,90.33
2019-03-20T03:10:17.392Z,90.12
2019-03-20T03:11:17.375Z,90.22
2019-03-20T03:12:17.353Z,90.01
2019-03-20T03:13:17.361Z,90.33
2019-03-20T03:14:17.561Z,90.53
2019-03-20T03:15:17.348Z,90.53
2019-03-20T03:16:17.311Z,90.85
2019-03-20T03:17:17.382Z,90.85
2019-03-20T03:18:17.310Z,90.95
2019-03-20T03:19:17.392Z,90.95
2019-03-20T03:20:17.430Z,90.64
2019-03-20T03:21:17.291Z,90.85
2019-03-20T03:22:17.494Z,90.68
2019-03-20T03:23:17.239Z,91.00
2019-03-20T03:24:17.234Z,90.78
2019-03-20T03:25:17.231Z,90.64
2019-03-20T03:26:17.207Z,90.78
2019-03-20T03:27:17.205Z,90.78
2019-03-20T03:28:17.391Z,90.85
2019-03-20T03:29:17.186Z,90.58
2019-03-20T03:30:17.331Z,90.58
2019-03-20T03:31:17.151Z,90.89
2019-03-20T03:32:17.505Z,90.89
2019-03-20T03:33:17.138Z,90.89
2019-03-20T03:34:17.202Z,90.68
2019-03-20T03:35:19.391Z,91.06
2019-03-20T03:36:21.527Z,91.00
2019-03-20T03:37:17.645Z,90.37
2019-03-20T03:38:17.635Z,91.00
2019-03-20T03:39:17.081Z,90.47
2019-03-20T03:40:17.062Z,90.58
2019-03-20T03:41:17.056Z,91.31
2019-03-20T03:42:17.056Z,91.31
2019-03-20T03:43:19.278Z,91.03
2019-03-20T03:44:17.143Z,91.31
2019-03-20T03:45:18.791Z,91.41
2019-03-20T03:46:16.997Z,91.52
2019-03-20T03:47:17.011Z,91.10
2019-03-20T03:48:16.973Z,91.72
2019-03-20T03:49:16.962Z,91.20
2019-03-20T03:50:17.722Z,91.20
2019-03-20T03:51:17.021Z,91.31
2019-03-20T03:52:16.926Z,91.31
2019-03-20T03:53:16.952Z,91.20
2019-03-20T03:54:16.906Z,91.83
2019-03-20T03:55:16.969Z,91.00
2019-03-20T03:56:17.129Z,91.41
2019-03-20T03:57:17.620Z,91.41
2019-03-20T03:58:16.874Z,91.52
2019-03-20T03:59:16.863Z,91.31
2019-03-20T04:00:16.844Z,91.10
2019-03-20T04:01:16.852Z,91.31
2019-03-20T04:02:16.931Z,91.31
2019-03-20T04:03:17.012Z,91.20
2019-03-20T04:04:17.532Z,91.52
2019-03-20T04:05:16.817Z,91.25
2019-03-20T04:06:17.191Z,91.31
2019-03-20T04:07:16.773Z,91.31
2019-03-20T04:08:17.048Z,91.56
2019-03-20T04:09:16.754Z,91.66
2019-03-20T04:10:17.039Z,91.35
2019-03-20T04:11:16.762Z,91.14
2019-03-20T04:12:17.326Z,91.87
2019-03-20T04:13:16.715Z,91.35
2019-03-20T04:14:16.754Z,91.56
2019-03-20T04:15:16.714Z,91.35
2019-03-20T04:16:16.717Z,91.46
2019-03-20T04:17:16.727Z,91.56
2019-03-20T04:18:17.394Z,91.87
2019-03-20T04:19:16.704Z,91.66
2019-03-20T04:20:16.698Z,91.56
2019-03-20T04:21:16.783Z,91.87
2019-03-20T04:22:16.692Z,92.08
2019-03-20T04:23:17.108Z,92.08
2019-03-20T04:24:16.672Z,92.40
2019-03-20T04:25:16.802Z,92.19
2019-03-20T04:26:16.576Z,92.40
2019-03-20T04:27:16.589Z,92.29
2019-03-20T04:28:16.548Z,92.08
2019-03-20T04:29:17.238Z,91.98
2019-03-20T04:30:16.520Z,91.98
2019-03-20T04:31:16.511Z,92.08
2019-03-20T04:32:16.506Z,92.19
2019-03-20T04:33:16.499Z,92.19
2019-03-20T04:34:16.483Z,91.98
2019-03-20T04:35:17.213Z,91.98
2019-03-20T04:36:16.451Z,92.08
2019-03-20T04:37:16.449Z,92.08
2019-03-20T04:38:16.432Z,91.98
2019-03-20T04:39:16.429Z,92.08
2019-03-20T04:40:16.475Z,92.23
2019-03-20T04:41:16.694Z,92.44
2019-03-20T04:42:16.445Z,92.23
2019-03-20T04:43:16.384Z,92.33
2019-03-20T04:44:16.402Z,92.33
2019-03-20T04:45:16.367Z,92.13
2019-03-20T04:46:16.358Z,92.23
2019-03-20T04:47:16.476Z,92.23
2019-03-20T04:48:16.329Z,92.13
2019-03-20T04:49:16.330Z,91.96
2019-03-20T04:50:16.301Z,92.13
2019-03-20T04:51:16.295Z,92.13
2019-03-20T04:52:16.458Z,92.44
2019-03-20T04:53:16.470Z,92.48
2019-03-20T04:54:25.523Z,92.65
2019-03-20T04:55:16.260Z,92.75
2019-03-20T04:56:16.240Z,92.69
2019-03-20T04:57:16.270Z,92.65
2019-03-20T04:58:16.351Z,92.65
2019-03-20T04:59:16.203Z,92.65
2019-03-20T05:00:16.197Z,92.65
2019-03-20T05:01:16.188Z,92.58
2019-03-20T05:02:16.411Z,92.75
2019-03-20T05:03:16.166Z,92.85
2019-03-20T05:04:16.480Z,92.65
2019-03-20T05:05:16.254Z,92.85
2019-03-20T05:06:16.503Z,92.90
2019-03-20T05:07:16.271Z,92.90
2019-03-20T05:08:16.111Z,93.01
2019-03-20T05:09:16.119Z,92.96
2019-03-20T05:10:16.099Z,93.01
2019-03-20T05:11:16.393Z,92.85
2019-03-20T05:12:16.108Z,93.01
2019-03-20T05:13:16.052Z,92.85
2019-03-20T05:14:16.162Z,92.96
2019-03-20T05:15:16.498Z,92.85
2019-03-20T05:16:22.807Z,92.82
2019-03-20T05:17:16.411Z,92.75
2019-03-20T05:18:16.641Z,92.75
2019-03-20T05:19:15.999Z,92.71
2019-03-20T05:20:15.985Z,92.82
2019-03-20T05:21:15.961Z,92.82
2019-03-20T05:22:15.955Z,92.92
2019-03-20T05:23:15.950Z,92.71
2019-03-20T05:24:16.122Z,92.82
2019-03-20T05:25:16.053Z,92.92
2019-03-20T05:26:16.239Z,92.50
2019-03-20T05:27:16.042Z,92.66
2019-03-20T05:28:15.893Z,92.56
2019-03-20T05:29:15.886Z,92.46
2019-03-20T05:30:15.872Z,92.04
2019-03-20T05:31:16.099Z,91.79
2019-03-20T05:32:15.876Z,92.14
2019-03-20T05:33:16.387Z,92.10
2019-03-20T05:34:15.847Z,91.58
2019-03-20T05:35:15.815Z,91.27
2019-03-20T05:36:15.928Z,91.58
2019-03-20T05:37:17.082Z,91.37
2019-03-20T05:38:15.810Z,91.06
2019-03-20T05:39:16.016Z,91.37
2019-03-20T05:40:15.778Z,91.27
2019-03-20T05:41:15.947Z,90.85
2019-03-20T05:42:15.745Z,90.53
2019-03-20T05:43:15.739Z,90.43
2019-03-20T05:44:15.717Z,90.64
2019-03-20T05:45:15.703Z,90.75
2019-03-20T05:46:15.894Z,90.39
2019-03-20T05:47:15.687Z,89.87
2019-03-20T05:48:21.907Z,90.08
2019-03-20T05:49:15.670Z,89.56
2019-03-20T05:50:15.693Z,89.62
2019-03-20T05:51:15.642Z,89.51
2019-03-20T05:52:16.095Z,88.68
2019-03-20T05:53:15.627Z,89.20
2019-03-20T05:54:15.620Z,89.31
2019-03-20T05:55:15.604Z,88.53
2019-03-20T05:56:17.045Z,88.12
2019-03-20T05:57:15.592Z,87.81
2019-03-20T05:58:15.866Z,87.49
2019-03-20T05:59:15.699Z,87.55
2019-03-20T06:00:21.825Z,88.01
2019-03-20T06:01:15.534Z,87.45
2019-03-20T06:02:15.521Z,87.45
2019-03-20T06:03:27.597Z,87.55
2019-03-20T06:04:15.501Z,87.55
2019-03-20T06:05:17.778Z,87.14
2019-03-20T06:06:16.176Z,87.14
2019-03-20T06:07:21.504Z,86.99
2019-03-20T06:08:16.534Z,87.20
2019-03-20T06:09:30.675Z,87.20
2019-03-20T06:10:15.819Z,87.30
2019-03-20T06:11:15.439Z,87.20
2019-03-20T06:12:18.512Z,87.10
2019-03-20T06:13:15.427Z,86.37
2019-03-20T06:14:15.399Z,86.08
2019-03-20T06:15:15.550Z,85.13
2019-03-20T06:16:15.375Z,81.51
2019-03-20T06:17:15.359Z,77.64
2019-03-20T06:18:15.381Z,73.71
2019-03-20T06:19:15.487Z,70.20
2019-03-20T06:20:15.914Z,66.63
2019-03-20T06:21:15.525Z,65.64
2019-03-20T06:22:15.319Z,63.52
2019-03-20T06:23:15.299Z,62.53
2019-03-20T06:24:15.290Z,60.45
2019-03-20T06:25:15.304Z,58.34
2019-03-20T06:26:16.733Z,56.87
2019-03-20T06:27:15.275Z,56.54
2019-03-20T06:28:15.517Z,55.62
2019-03-20T06:29:15.251Z,55.69
2019-03-20T06:30:15.246Z,53.92
2019-03-20T06:31:15.209Z,54.00
2019-03-20T06:32:15.378Z,52.97
2019-03-20T06:33:15.215Z,52.21
2019-03-20T06:34:15.178Z,51.24
2019-03-20T06:35:15.174Z,49.46
2019-03-20T06:36:15.161Z,49.10
2019-03-20T06:37:15.242Z,48.44
2019-03-20T06:38:15.475Z,46.47
2019-03-20T06:39:15.158Z,46.03
2019-03-20T06:40:15.140Z,44.38
2019-03-20T06:41:15.620Z,43.96
2019-03-20T06:42:15.137Z,43.32
2019-03-20T06:43:15.178Z,42.63
2019-03-20T06:44:15.342Z,43.32
2019-03-20T06:45:15.054Z,41.78
2019-03-20T06:46:15.598Z,42.14
2019-03-20T06:47:15.036Z,40.52
2019-03-20T06:48:15.140Z,40.50
2019-03-20T06:49:15.053Z,40.40
2019-03-20T06:50:18.644Z,40.08
2019-03-20T06:51:15.135Z,39.65
2019-03-20T06:52:15.023Z,39.15
2019-03-20T06:53:14.979Z,38.72
2019-03-20T06:54:15.079Z,38.37
2019-03-20T06:55:14.960Z,36.02
2019-03-20T06:56:15.465Z,36.74
2019-03-20T06:57:14.928Z,36.76
2019-03-20T06:58:14.977Z,37.16
2019-03-20T06:59:14.912Z,36.32
2019-03-20T07:00:14.900Z,35.08
2019-03-20T07:01:15.017Z,34.05
2019-03-20T07:02:15.066Z,33.93
2019-03-20T07:03:14.865Z,34.00
2019-03-20T07:04:14.847Z,33.19
2019-03-20T07:05:14.868Z,32.89
2019-03-20T07:06:14.827Z,32.87
2019-03-20T07:07:15.968Z,31.84
2019-03-20T07:08:14.821Z,31.92
2019-03-20T07:09:15.027Z,31.30
2019-03-20T07:10:14.809Z,31.19
2019-03-20T07:11:15.051Z,30.76
2019-03-20T07:12:14.762Z,29.44
2019-03-20T07:13:15.022Z,29.24
2019-03-20T07:14:14.734Z,29.75
2019-03-20T07:15:14.726Z,29.45
2019-03-20T07:16:16.610Z,29.45
2019-03-20T07:17:19.295Z,28.93
2019-03-20T07:18:18.554Z,28.45
2019-03-20T07:19:15.504Z,28.96
2019-03-20T07:20:14.724Z,28.43
2019-03-20T07:21:14.700Z,27.91
2019-03-20T07:22:14.740Z,28.00
2019-03-20T07:23:14.694Z,27.69
2019-03-20T07:24:15.288Z,27.61
2019-03-20T07:25:15.254Z,27.62
2019-03-20T07:26:14.839Z,28.42
2019-03-20T07:27:15.491Z,28.22
2019-03-20T07:28:14.927Z,27.80
2019-03-20T07:29:14.871Z,27.48
2019-03-20T07:30:15.496Z,26.57
2019-03-20T07:31:16.091Z,27.39
2019-03-20T07:32:16.948Z,26.98
2019-03-20T07:33:14.873Z,26.47
2019-03-20T07:34:14.523Z,27.19
2019-03-20T07:35:15.036Z,26.37
2019-03-20T07:36:15.244Z,27.16
2019-03-20T07:37:18.053Z,25.34
2019-03-20T07:38:14.479Z,25.87
2019-03-20T07:39:14.495Z,27.00
2019-03-20T07:40:14.454Z,27.39
2019-03-20T07:41:14.462Z,27.19
2019-03-20T07:42:14.450Z,26.48
2019-03-20T07:43:14.945Z,26.68
2019-03-20T07:44:14.505Z,25.77
2019-03-20T07:45:14.402Z,25.46
2019-03-20T07:46:14.400Z,25.46
2019-03-20T07:47:14.387Z,25.63
2019-03-20T07:48:22.158Z,24.73
2019-03-20T07:49:15.351Z,25.22
2019-03-20T07:50:14.333Z,25.22
2019-03-20T07:51:14.329Z,24.60
2019-03-20T07:52:14.493Z,23.56
2019-03-20T07:53:15.283Z,23.38
2019-03-20T07:54:14.460Z,23.57
2019-03-20T07:55:14.279Z,23.60
2019-03-20T07:56:14.445Z,23.50
2019-03-20T07:57:14.275Z,23.79
2019-03-20T07:58:14.424Z,23.27
2019-03-20T07:59:14.241Z,22.76
2019-03-20T08:00:14.301Z,23.07
2019-03-20T08:01:14.266Z,23.15
2019-03-20T08:02:14.698Z,22.82
2019-03-20T08:03:14.216Z,21.60
2019-03-20T08:04:14.849Z,20.89
2019-03-20T08:05:14.210Z,20.48
2019-03-20T08:06:14.166Z,20.46
2019-03-20T08:07:14.189Z,19.93
2019-03-20T08:08:14.138Z,19.13
2019-03-20T08:09:14.488Z,20.34
2019-03-20T08:10:14.121Z,20.13
2019-03-20T08:11:14.135Z,20.02
2019-03-20T08:12:14.090Z,19.22
2019-03-20T08:13:14.091Z,19.60
2019-03-20T08:14:14.393Z,19.52
2019-03-20T08:15:14.143Z,19.94
2019-03-20T08:16:14.050Z,20.27
2019-03-20T08:17:14.208Z,20.56
2019-03-20T08:18:14.028Z,19.57
2019-03-20T08:19:14.077Z,19.07
2019-03-20T08:20:14.155Z,20.34
2019-03-20T08:21:14.007Z,19.45
2019-03-20T08:22:13.990Z,19.45
2019-03-20T08:23:14.103Z,20.03
2019-03-20T08:24:14.080Z,18.94
2019-03-20T08:25:13.957Z,19.94
2019-03-20T08:26:13.957Z,20.67
2019-03-20T08:27:16.188Z,20.37
2019-03-20T08:28:13.922Z,20.26
2019-03-20T08:29:13.916Z,19.27
2019-03-20T08:30:14.082Z,19.37
2019-03-20T08:31:14.071Z,20.89
2019-03-20T08:32:13.993Z,21.79
2019-03-20T08:33:13.901Z,20.56
2019-03-20T08:34:13.898Z,19.44
2019-03-20T08:35:13.881Z,19.12
2019-03-20T08:36:13.858Z,20.23
2019-03-20T08:37:14.359Z,19.05
2019-03-20T08:38:18.595Z,19.73
2019-03-20T08:39:13.810Z,19.31
2019-03-20T08:40:13.793Z,18.50
2019-03-20T08:41:13.781Z,17.69
2019-03-20T08:42:13.775Z,18.08
2019-03-20T08:43:13.896Z,18.59
2019-03-20T08:44:13.919Z,18.50
2019-03-20T08:45:13.749Z,18.90
2019-03-20T08:46:13.728Z,17.49
2019-03-20T08:47:13.730Z,17.66
2019-03-20T08:48:14.810Z,17.45
2019-03-20T08:49:14.115Z,15.95
2019-03-20T08:50:13.689Z,16.56
2019-03-20T08:51:13.690Z,16.97
2019-03-20T08:52:13.678Z,17.59
2019-03-20T08:53:13.657Z,17.90
2019-03-20T08:54:13.883Z,17.47
2019-03-20T08:55:13.639Z,16.97
2019-03-20T08:56:13.633Z,16.38
2019-03-20T08:57:13.635Z,17.86
2019-03-20T08:58:13.603Z,17.25
2019-03-20T08:59:13.854Z,16.27
2019-03-20T09:00:13.584Z,16.38
2019-03-20T09:01:13.567Z,17.60
2019-03-20T09:02:13.572Z,18.62
2019-03-20T09:03:13.536Z,19.70
2019-03-20T09:04:13.537Z,19.60
2019-03-20T09:05:13.689Z,19.52
2019-03-20T09:06:13.652Z,19.21
2019-03-20T09:07:13.503Z,19.41
2019-03-20T09:08:13.504Z,19.44
2019-03-20T09:09:13.727Z,19.54
2019-03-20T09:10:13.482Z,19.54
2019-03-20T09:11:13.668Z,20.13
2019-03-20T09:12:13.447Z,19.42
2019-03-20T09:13:13.441Z,18.50
2019-03-20T09:14:13.419Z,18.27
2019-03-20T09:15:13.421Z,17.47
2019-03-20T09:16:13.414Z,17.38
2019-03-20T09:17:19.007Z,17.07
2019-03-20T09:18:13.388Z,17.66
2019-03-20T09:19:13.379Z,15.76
2019-03-20T09:20:13.362Z,16.25
2019-03-20T09:21:13.410Z,15.66
2019-03-20T09:22:13.337Z,16.55
2019-03-20T09:23:13.624Z,16.38
2019-03-20T09:24:13.325Z,16.47
2019-03-20T09:25:13.323Z,15.47
2019-03-20T09:26:13.296Z,15.45
2019-03-20T09:27:13.718Z,15.45
2019-03-20T09:28:13.463Z,14.96
2019-03-20T09:29:18.651Z,16.99
2019-03-20T09:30:14.251Z,17.83
2019-03-20T09:31:13.243Z,18.63
2019-03-20T09:32:13.554Z,19.14
2019-03-20T09:33:13.221Z,19.04
2019-03-20T09:34:13.209Z,18.85
2019-03-20T09:35:13.198Z,18.24
2019-03-20T09:36:13.185Z,19.20
2019-03-20T09:37:13.173Z,18.18
2019-03-20T09:38:17.132Z,17.66
2019-03-20T09:39:13.158Z,16.55
2019-03-20T09:40:13.284Z,15.66
2019-03-20T09:41:13.135Z,15.86
2019-03-20T09:42:13.830Z,15.99
2019-03-20T09:43:13.110Z,18.80
2019-03-20T09:44:13.567Z,17.58
2019-03-20T09:45:13.088Z,16.76
2019-03-20T09:46:13.106Z,16.47
2019-03-20T09:47:13.073Z,16.29
2019-03-20T09:48:13.068Z,17.40
2019-03-20T09:49:13.240Z,18.12
2019-03-20T09:50:13.035Z,19.21
2019-03-20T09:51:13.018Z,18.82
2019-03-20T09:52:13.013Z,18.38
2019-03-20T09:53:13.021Z,16.97
2019-03-20T09:54:13.169Z,15.75
2019-03-20T09:55:13.137Z,15.45
2019-03-20T09:56:13.930Z,15.44
2019-03-20T09:57:12.959Z,15.13
2019-03-20T09:58:12.954Z,14.85
2019-03-20T09:59:14.644Z,16.17
2019-03-20T10:00:12.939Z,16.07
2019-03-20T10:01:13.311Z,16.27
2019-03-20T10:02:12.907Z,16.28
2019-03-20T10:03:12.923Z,17.41
2019-03-20T10:04:12.881Z,17.93
2019-03-20T10:05:13.084Z,18.91
2019-03-20T10:06:12.868Z,17.59
2019-03-20T10:07:12.857Z,17.66
2019-03-20T10:08:13.005Z,15.86
2019-03-20T10:09:12.844Z,15.64
2019-03-20T10:10:13.029Z,15.32
2019-03-20T10:11:12.971Z,14.03
2019-03-20T10:12:13.040Z,14.32
2019-03-20T10:13:12.792Z,15.13
2019-03-20T10:14:12.787Z,14.95
2019-03-20T10:15:12.777Z,14.86
2019-03-20T10:16:13.456Z,15.16
2019-03-20T10:17:12.748Z,15.45
2019-03-20T10:18:12.738Z,15.47
2019-03-20T10:19:13.081Z,15.64
2019-03-20T10:20:14.000Z,15.64
2019-03-20T10:21:12.702Z,15.95
2019-03-20T10:22:13.252Z,17.16
2019-03-20T10:23:13.010Z,17.26
2019-03-20T10:24:13.106Z,16.19
2019-03-20T10:25:12.710Z,16.28
2019-03-20T10:26:12.673Z,17.27
2019-03-20T10:27:13.067Z,17.16
2019-03-20T10:28:12.679Z,15.95
2019-03-20T10:29:12.863Z,16.04
2019-03-20T10:30:12.688Z,15.23
2019-03-20T10:31:12.960Z,14.74
2019-03-20T10:32:12.678Z,15.22
2019-03-20T10:33:13.323Z,14.25
2019-03-20T10:34:12.656Z,15.66
2019-03-20T10:35:13.329Z,15.95
2019-03-20T10:36:12.539Z,17.31
2019-03-20T10:37:12.547Z,18.84
2019-03-20T10:38:12.528Z,18.73
2019-03-20T10:39:13.247Z,19.52
2019-03-20T10:40:12.509Z,20.07
2019-03-20T10:41:12.492Z,21.42
2019-03-20T10:42:12.487Z,21.30
2019-03-20T10:43:12.526Z,21.50
2019-03-20T10:44:12.489Z,21.00
2019-03-20T10:45:13.159Z,21.92
2019-03-20T10:46:14.301Z,21.64
2019-03-20T10:47:12.445Z,22.42
2019-03-20T10:48:12.449Z,21.16
2019-03-20T10:49:14.567Z,19.67
2019-03-20T10:50:12.413Z,20.76
2019-03-20T10:51:12.535Z,20.03
2019-03-20T10:52:12.388Z,18.90
2019-03-20T10:53:12.503Z,18.31
2019-03-20T10:54:12.348Z,19.20
2019-03-20T10:55:12.367Z,18.80
2019-03-20T10:56:12.339Z,19.13
2019-03-20T10:57:12.318Z,19.54
2019-03-20T10:58:12.353Z,20.05
2019-03-20T10:59:12.483Z,20.57
2019-03-20T11:00:12.299Z,21.30
2019-03-20T11:01:12.293Z,21.28
2019-03-20T11:02:12.275Z,20.47
2019-03-20T11:03:12.327Z,20.16
2019-03-20T11:04:12.548Z,19.02
2019-03-20T11:05:12.286Z,18.90
2019-03-20T11:06:12.223Z,18.79
2019-03-20T11:07:12.216Z,17.89
2019-03-20T11:08:13.133Z,17.27
2019-03-20T11:09:18.183Z,17.76
2019-03-20T11:10:14.106Z,17.66
2019-03-20T11:11:12.188Z,17.57
2019-03-20T11:12:12.164Z,17.57
2019-03-20T11:13:12.161Z,17.88
2019-03-20T11:14:12.147Z,19.19
2019-03-20T11:15:12.425Z,18.82
2019-03-20T11:16:12.205Z,19.09
2019-03-20T11:17:12.114Z,17.98
2019-03-20T11:18:12.153Z,17.97
2019-03-20T11:19:12.088Z,17.46
2019-03-20T11:20:12.211Z,17.57
2019-03-20T11:21:12.240Z,17.59
2019-03-20T11:22:18.540Z,17.79
2019-03-20T11:23:15.452Z,17.19
2019-03-20T11:24:12.043Z,18.19
2019-03-20T11:25:12.034Z,19.04
2019-03-20T11:26:12.150Z,19.73
2019-03-20T11:27:12.018Z,19.13
2019-03-20T11:28:11.999Z,19.51
2019-03-20T11:29:11.988Z,19.40
2019-03-20T11:30:11.974Z,18.51
2019-03-20T11:31:12.448Z,18.90
2019-03-20T11:32:14.273Z,18.60
2019-03-20T11:33:11.945Z,19.01
2019-03-20T11:34:11.943Z,19.44
2019-03-20T11:35:11.998Z,20.26
2019-03-20T11:36:11.903Z,20.06
2019-03-20T11:37:12.092Z,20.05
2019-03-20T11:38:11.891Z,19.43
2019-03-20T11:39:11.911Z,18.73
2019-03-20T11:40:11.867Z,20.27
2019-03-20T11:41:11.926Z,21.71
2019-03-20T11:42:11.856Z,22.56
2019-03-20T11:43:12.028Z,25.14
2019-03-20T11:44:11.834Z,25.63
2019-03-20T11:45:11.810Z,26.70
2019-03-20T11:46:11.808Z,29.57
2019-03-20T11:47:11.800Z,28.53
2019-03-20T11:48:13.546Z,27.80
2019-03-20T11:49:11.774Z,27.56
2019-03-20T11:50:11.778Z,26.53
2019-03-20T11:51:11.767Z,26.26
2019-03-20T11:52:11.850Z,27.99
2019-03-20T11:53:11.735Z,27.76
2019-03-20T11:54:12.865Z,26.32
2019-03-20T11:55:11.714Z,26.32
2019-03-20T11:56:11.709Z,26.43
2019-03-20T11:57:11.684Z,25.93
2019-03-20T11:58:11.687Z,27.15
2019-03-20T11:59:11.679Z,25.42
2019-03-20T12:00:15.431Z,24.48
2019-03-20T12:01:11.650Z,23.66
2019-03-20T12:02:11.631Z,24.79
2019-03-20T12:03:11.623Z,24.99
2019-03-20T12:04:11.652Z,25.62
2019-03-20T12:05:11.648Z,25.72
2019-03-20T12:06:11.797Z,25.62
2019-03-20T12:07:11.599Z,26.66
2019-03-20T12:08:11.567Z,28.53
2019-03-20T12:09:11.715Z,28.76
2019-03-20T12:10:11.544Z,30.71
2019-03-20T12:11:11.559Z,31.23
2019-03-20T12:12:11.744Z,30.91
2019-03-20T12:13:11.508Z,29.78
2019-03-20T12:14:11.498Z,30.27
2019-03-20T12:15:11.486Z,29.25
2019-03-20T12:16:11.479Z,29.46
2019-03-20T12:17:11.470Z,29.78
2019-03-20T12:18:11.678Z,29.47
2019-03-20T12:19:11.445Z,29.35
2019-03-20T12:20:11.437Z,28.83
2019-03-20T12:21:13.092Z,28.80
2019-03-20T12:22:11.417Z,28.10
2019-03-20T12:23:11.662Z,27.40
2019-03-20T12:24:11.415Z,28.44
2019-03-20T12:25:11.387Z,29.68
2019-03-20T12:26:11.489Z,29.68
2019-03-20T12:27:15.296Z,29.71
2019-03-20T12:28:11.429Z,31.24
2019-03-20T12:29:11.483Z,31.95
2019-03-20T12:30:11.321Z,31.76
2019-03-20T12:31:11.403Z,31.36
2019-03-20T12:32:11.301Z,31.48
2019-03-20T12:33:11.300Z,31.23
2019-03-20T12:34:11.542Z,29.78
2019-03-20T12:35:11.266Z,28.93
2019-03-20T12:36:11.502Z,28.70
2019-03-20T12:37:11.897Z,28.93
2019-03-20T12:38:14.984Z,29.45
2019-03-20T12:39:11.229Z,28.63
2019-03-20T12:40:11.231Z,29.25
2019-03-20T12:41:11.543Z,29.25
2019-03-20T12:42:12.107Z,29.88
2019-03-20T12:43:11.313Z,30.80
2019-03-20T12:44:11.172Z,30.79
2019-03-20T12:45:11.438Z,30.27
2019-03-20T12:46:12.091Z,29.25
2019-03-20T12:47:11.150Z,28.33
2019-03-20T12:48:11.148Z,29.78
2019-03-20T12:49:11.127Z,29.86
2019-03-20T12:50:11.132Z,30.10
2019-03-20T12:51:11.128Z,30.08
2019-03-20T12:52:11.317Z,29.98